sensor_id;sensor_type;location;lat;lon;timestamp;P1;durP1;ratioP1;P2;durP2;ratioP2
50056;SDS011;36875;49.468;11.200;2022-07-10T00:01:25;3.13;;;1.73;;
50056;SDS011;36875;49.468;11.200;2022-07-10T00:03:51;2.78;;;1.90;;
50056;SDS011;36875;49.468;11.200;2022-07-10T00:06:17;3.05;;;1.80;;
50056;SDS011;36875;49.468;11.200;2022-07-10T00:08:42;2.42;;;1.90;;
50056;SDS011;36875;49.468;11.200;2022-07-10T00:11:08;2.45;;;1.40;;
50056;SDS011;36875;49.468;11.200;2022-07-10T00:13:34;2.28;;;1.80;;
50056;SDS011;36875;49.468;11.200;2022-07-10T00:15:59;2.53;;;1.77;;
50056;SDS011;36875;49.468;11.200;2022-07-10T00:18:28;2.78;;;2.00;;
50056;SDS011;36875;49.468;11.200;2022-07-10T00:20:54;2.60;;;1.70;;
50056;SDS011;36875;49.468;11.200;2022-07-10T00:23:19;2.42;;;1.75;;
50056;SDS011;36875;49.468;11.200;2022-07-10T00:25:45;2.40;;;1.83;;
50056;SDS011;36875;49.468;11.200;2022-07-10T00:28:10;2.20;;;1.70;;
50056;SDS011;36875;49.468;11.200;2022-07-10T00:30:36;2.75;;;1.80;;
50056;SDS011;36875;49.468;11.200;2022-07-10T00:33:02;2.08;;;1.63;;
50056;SDS011;36875;49.468;11.200;2022-07-10T00:35:29;3.10;;;1.85;;
50056;SDS011;36875;49.468;11.200;2022-07-10T00:37:55;2.47;;;1.73;;
50056;SDS011;36875;49.468;11.200;2022-07-10T00:40:21;2.70;;;1.52;;
50056;SDS011;36875;49.468;11.200;2022-07-10T00:42:46;1.90;;;1.52;;
50056;SDS011;36875;49.468;11.200;2022-07-10T00:45:12;2.63;;;1.70;;
50056;SDS011;36875;49.468;11.200;2022-07-10T00:47:38;2.55;;;1.70;;
50056;SDS011;36875;49.468;11.200;2022-07-10T00:50:04;2.65;;;2.00;;
50056;SDS011;36875;49.468;11.200;2022-07-10T00:52:33;2.42;;;1.58;;
50056;SDS011;36875;49.468;11.200;2022-07-10T00:55:04;3.95;;;2.00;;
50056;SDS011;36875;49.468;11.200;2022-07-10T00:57:30;2.42;;;1.70;;
50056;SDS011;36875;49.468;11.200;2022-07-10T00:59:56;2.63;;;1.95;;
50056;SDS011;36875;49.468;11.200;2022-07-10T01:02:23;2.40;;;1.88;;
50056;SDS011;36875;49.468;11.200;2022-07-10T01:04:49;2.47;;;1.70;;
50056;SDS011;36875;49.468;11.200;2022-07-10T01:07:14;2.67;;;1.48;;
50056;SDS011;36875;49.468;11.200;2022-07-10T01:09:42;2.88;;;1.88;;
50056;SDS011;36875;49.468;11.200;2022-07-10T01:12:08;2.10;;;1.65;;
50056;SDS011;36875;49.468;11.200;2022-07-10T01:14:35;3.58;;;2.17;;
50056;SDS011;36875;49.468;11.200;2022-07-10T01:17:04;2.17;;;1.58;;
50056;SDS011;36875;49.468;11.200;2022-07-10T01:19:31;2.63;;;1.95;;
50056;SDS011;36875;49.468;11.200;2022-07-10T01:21:58;3.00;;;2.00;;
50056;SDS011;36875;49.468;11.200;2022-07-10T01:24:23;2.03;;;1.70;;
50056;SDS011;36875;49.468;11.200;2022-07-10T01:26:49;3.33;;;1.85;;
50056;SDS011;36875;49.468;11.200;2022-07-10T01:29:15;2.42;;;1.77;;
50056;SDS011;36875;49.468;11.200;2022-07-10T01:31:40;2.55;;;1.67;;
50056;SDS011;36875;49.468;11.200;2022-07-10T01:34:07;2.20;;;1.67;;
50056;SDS011;36875;49.468;11.200;2022-07-10T01:36:34;1.50;;;1.35;;
50056;SDS011;36875;49.468;11.200;2022-07-10T01:39:01;2.30;;;1.63;;
50056;SDS011;36875;49.468;11.200;2022-07-10T01:41:27;3.85;;;1.70;;
50056;SDS011;36875;49.468;11.200;2022-07-10T01:43:53;2.20;;;1.70;;
50056;SDS011;36875;49.468;11.200;2022-07-10T01:46:19;1.90;;;1.50;;
50056;SDS011;36875;49.468;11.200;2022-07-10T01:48:45;2.13;;;1.55;;
50056;SDS011;36875;49.468;11.200;2022-07-10T01:51:11;2.58;;;1.75;;
50056;SDS011;36875;49.468;11.200;2022-07-10T01:53:37;2.30;;;1.70;;
50056;SDS011;36875;49.468;11.200;2022-07-10T01:56:05;2.75;;;1.80;;
50056;SDS011;36875;49.468;11.200;2022-07-10T01:58:33;2.15;;;1.70;;
50056;SDS011;36875;49.468;11.200;2022-07-10T02:00:59;2.28;;;1.70;;
50056;SDS011;36875;49.468;11.200;2022-07-10T02:03:25;2.97;;;1.52;;
50056;SDS011;36875;49.468;11.200;2022-07-10T02:06:09;2.55;;;1.48;;
50056;SDS011;36875;49.468;11.200;2022-07-10T02:08:35;2.88;;;1.63;;
50056;SDS011;36875;49.468;11.200;2022-07-10T02:11:01;2.28;;;1.83;;
50056;SDS011;36875;49.468;11.200;2022-07-10T02:13:28;3.15;;;1.60;;
50056;SDS011;36875;49.468;11.200;2022-07-10T02:15:53;1.73;;;1.50;;
50056;SDS011;36875;49.468;11.200;2022-07-10T02:18:20;2.17;;;1.67;;
50056;SDS011;36875;49.468;11.200;2022-07-10T02:20:45;2.22;;;1.58;;
50056;SDS011;36875;49.468;11.200;2022-07-10T02:23:11;2.42;;;1.40;;
50056;SDS011;36875;49.468;11.200;2022-07-10T02:25:37;2.35;;;1.58;;
50056;SDS011;36875;49.468;11.200;2022-07-10T02:28:02;2.33;;;1.70;;
50056;SDS011;36875;49.468;11.200;2022-07-10T02:30:30;2.50;;;1.80;;
50056;SDS011;36875;49.468;11.200;2022-07-10T02:32:56;2.95;;;2.17;;
50056;SDS011;36875;49.468;11.200;2022-07-10T02:35:22;1.92;;;1.60;;
50056;SDS011;36875;49.468;11.200;2022-07-10T02:37:48;1.50;;;1.38;;
50056;SDS011;36875;49.468;11.200;2022-07-10T02:40:14;1.60;;;1.50;;
50056;SDS011;36875;49.468;11.200;2022-07-10T02:42:39;3.00;;;1.50;;
50056;SDS011;36875;49.468;11.200;2022-07-10T02:45:06;1.80;;;1.50;;
50056;SDS011;36875;49.468;11.200;2022-07-10T02:47:33;2.25;;;1.70;;
50056;SDS011;36875;49.468;11.200;2022-07-10T02:49:59;2.45;;;1.70;;
50056;SDS011;36875;49.468;11.200;2022-07-10T02:52:25;1.60;;;1.33;;
50056;SDS011;36875;49.468;11.200;2022-07-10T02:54:50;2.20;;;1.63;;
50056;SDS011;36875;49.468;11.200;2022-07-10T02:57:16;1.50;;;1.40;;
50056;SDS011;36875;49.468;11.200;2022-07-10T02:59:42;2.88;;;1.60;;
50056;SDS011;36875;49.468;11.200;2022-07-10T03:02:08;2.33;;;1.80;;
50056;SDS011;36875;49.468;11.200;2022-07-10T03:04:35;2.60;;;1.60;;
50056;SDS011;36875;49.468;11.200;2022-07-10T03:07:00;1.80;;;1.40;;
50056;SDS011;36875;49.468;11.200;2022-07-10T03:09:26;2.22;;;1.63;;
50056;SDS011;36875;49.468;11.200;2022-07-10T03:11:52;1.55;;;1.33;;
50056;SDS011;36875;49.468;11.200;2022-07-10T03:14:17;2.20;;;1.70;;
50056;SDS011;36875;49.468;11.200;2022-07-10T03:16:43;2.13;;;1.70;;
50056;SDS011;36875;49.468;11.200;2022-07-10T03:19:09;2.03;;;1.55;;
50056;SDS011;36875;49.468;11.200;2022-07-10T03:21:36;2.45;;;1.65;;
50056;SDS011;36875;49.468;11.200;2022-07-10T03:24:02;1.80;;;1.52;;
50056;SDS011;36875;49.468;11.200;2022-07-10T03:26:28;2.15;;;1.60;;
50056;SDS011;36875;49.468;11.200;2022-07-10T03:28:54;2.72;;;1.55;;
50056;SDS011;36875;49.468;11.200;2022-07-10T03:31:20;2.15;;;1.80;;
50056;SDS011;36875;49.468;11.200;2022-07-10T03:33:45;1.85;;;1.45;;
50056;SDS011;36875;49.468;11.200;2022-07-10T03:36:11;3.85;;;1.40;;
50056;SDS011;36875;49.468;11.200;2022-07-10T03:38:39;1.95;;;1.60;;
50056;SDS011;36875;49.468;11.200;2022-07-10T03:41:05;1.90;;;1.63;;
50056;SDS011;36875;49.468;11.200;2022-07-10T03:43:31;2.10;;;1.40;;
50056;SDS011;36875;49.468;11.200;2022-07-10T03:45:57;2.50;;;1.75;;
50056;SDS011;36875;49.468;11.200;2022-07-10T03:48:22;1.80;;;1.45;;
50056;SDS011;36875;49.468;11.200;2022-07-10T03:50:49;2.10;;;1.50;;
50056;SDS011;36875;49.468;11.200;2022-07-10T03:53:14;2.15;;;1.60;;
50056;SDS011;36875;49.468;11.200;2022-07-10T03:55:41;3.28;;;1.73;;
50056;SDS011;36875;49.468;11.200;2022-07-10T03:58:07;2.85;;;1.50;;
50056;SDS011;36875;49.468;11.200;2022-07-10T04:00:33;3.45;;;1.83;;
50056;SDS011;36875;49.468;11.200;2022-07-10T04:03:00;2.17;;;1.60;;
50056;SDS011;36875;49.468;11.200;2022-07-10T04:05:28;1.70;;;1.48;;
50056;SDS011;36875;49.468;11.200;2022-07-10T04:07:54;1.92;;;1.50;;
50056;SDS011;36875;49.468;11.200;2022-07-10T04:10:22;2.15;;;1.40;;
50056;SDS011;36875;49.468;11.200;2022-07-10T04:12:49;1.92;;;1.38;;
50056;SDS011;36875;49.468;11.200;2022-07-10T04:15:15;2.83;;;1.52;;
50056;SDS011;36875;49.468;11.200;2022-07-10T04:17:41;1.60;;;1.50;;
50056;SDS011;36875;49.468;11.200;2022-07-10T04:20:07;2.88;;;1.58;;
50056;SDS011;36875;49.468;11.200;2022-07-10T04:22:34;3.60;;;1.60;;
50056;SDS011;36875;49.468;11.200;2022-07-10T04:25:00;1.40;;;1.30;;
50056;SDS011;36875;49.468;11.200;2022-07-10T04:27:26;1.83;;;1.40;;
50056;SDS011;36875;49.468;11.200;2022-07-10T04:29:53;2.08;;;1.50;;
50056;SDS011;36875;49.468;11.200;2022-07-10T04:32:18;1.88;;;1.40;;
50056;SDS011;36875;49.468;11.200;2022-07-10T04:34:44;2.25;;;1.38;;
50056;SDS011;36875;49.468;11.200;2022-07-10T04:37:10;2.40;;;1.70;;
50056;SDS011;36875;49.468;11.200;2022-07-10T04:39:35;2.05;;;1.60;;
50056;SDS011;36875;49.468;11.200;2022-07-10T04:42:02;1.63;;;1.40;;
50056;SDS011;36875;49.468;11.200;2022-07-10T04:44:28;2.10;;;1.58;;
50056;SDS011;36875;49.468;11.200;2022-07-10T04:46:55;1.60;;;1.40;;
50056;SDS011;36875;49.468;11.200;2022-07-10T04:49:21;1.55;;;1.45;;
50056;SDS011;36875;49.468;11.200;2022-07-10T04:51:47;2.78;;;1.60;;
50056;SDS011;36875;49.468;11.200;2022-07-10T04:54:12;2.17;;;1.50;;
50056;SDS011;36875;49.468;11.200;2022-07-10T04:56:38;2.63;;;1.50;;
50056;SDS011;36875;49.468;11.200;2022-07-10T04:59:03;2.55;;;1.55;;
50056;SDS011;36875;49.468;11.200;2022-07-10T05:01:29;1.40;;;1.30;;
50056;SDS011;36875;49.468;11.200;2022-07-10T05:03:56;1.38;;;1.25;;
50056;SDS011;36875;49.468;11.200;2022-07-10T05:06:22;1.95;;;1.48;;
50056;SDS011;36875;49.468;11.200;2022-07-10T05:08:47;2.58;;;1.65;;
50056;SDS011;36875;49.468;11.200;2022-07-10T05:11:13;2.28;;;1.65;;
50056;SDS011;36875;49.468;11.200;2022-07-10T05:13:39;1.83;;;1.50;;
50056;SDS011;36875;49.468;11.200;2022-07-10T05:16:05;1.92;;;1.40;;
50056;SDS011;36875;49.468;11.200;2022-07-10T05:18:30;2.25;;;1.40;;
50056;SDS011;36875;49.468;11.200;2022-07-10T05:20:58;1.92;;;1.30;;
50056;SDS011;36875;49.468;11.200;2022-07-10T05:23:23;2.45;;;1.73;;
50056;SDS011;36875;49.468;11.200;2022-07-10T05:25:49;1.77;;;1.30;;
50056;SDS011;36875;49.468;11.200;2022-07-10T05:28:14;1.58;;;1.38;;
50056;SDS011;36875;49.468;11.200;2022-07-10T05:30:40;3.15;;;1.48;;
50056;SDS011;36875;49.468;11.200;2022-07-10T05:33:06;2.33;;;1.50;;
50056;SDS011;36875;49.468;11.200;2022-07-10T05:35:32;1.80;;;1.23;;
50056;SDS011;36875;49.468;11.200;2022-07-10T05:37:59;1.83;;;1.40;;
50056;SDS011;36875;49.468;11.200;2022-07-10T05:40:25;1.73;;;1.25;;
50056;SDS011;36875;49.468;11.200;2022-07-10T05:42:50;3.05;;;1.30;;
50056;SDS011;36875;49.468;11.200;2022-07-10T05:45:16;1.40;;;1.30;;
50056;SDS011;36875;49.468;11.200;2022-07-10T05:47:42;2.42;;;1.20;;
50056;SDS011;36875;49.468;11.200;2022-07-10T05:50:09;1.45;;;1.35;;
50056;SDS011;36875;49.468;11.200;2022-07-10T05:52:36;1.60;;;1.35;;
50056;SDS011;36875;49.468;11.200;2022-07-10T05:55:04;2.50;;;1.38;;
50056;SDS011;36875;49.468;11.200;2022-07-10T05:57:30;1.67;;;1.40;;
50056;SDS011;36875;49.468;11.200;2022-07-10T05:59:56;1.95;;;1.15;;
50056;SDS011;36875;49.468;11.200;2022-07-10T06:02:22;1.98;;;1.50;;
50056;SDS011;36875;49.468;11.200;2022-07-10T06:04:47;1.42;;;1.25;;
50056;SDS011;36875;49.468;11.200;2022-07-10T06:07:13;1.58;;;1.25;;
50056;SDS011;36875;49.468;11.200;2022-07-10T06:09:38;2.80;;;1.60;;
50056;SDS011;36875;49.468;11.200;2022-07-10T06:12:05;3.20;;;1.40;;
50056;SDS011;36875;49.468;11.200;2022-07-10T06:14:31;2.05;;;1.20;;
50056;SDS011;36875;49.468;11.200;2022-07-10T06:16:57;2.03;;;1.17;;
50056;SDS011;36875;49.468;11.200;2022-07-10T06:19:22;2.95;;;1.20;;
50056;SDS011;36875;49.468;11.200;2022-07-10T06:21:48;1.88;;;1.40;;
50056;SDS011;36875;49.468;11.200;2022-07-10T06:24:34;1.50;;;1.30;;
50056;SDS011;36875;49.468;11.200;2022-07-10T06:26:59;2.13;;;1.23;;
50056;SDS011;36875;49.468;11.200;2022-07-10T06:29:26;1.90;;;1.20;;
50056;SDS011;36875;49.468;11.200;2022-07-10T06:31:52;2.33;;;1.30;;
50056;SDS011;36875;49.468;11.200;2022-07-10T06:34:17;3.25;;;1.40;;
50056;SDS011;36875;49.468;11.200;2022-07-10T06:36:44;2.90;;;1.77;;
50056;SDS011;36875;49.468;11.200;2022-07-10T06:39:10;5.25;;;1.88;;
50056;SDS011;36875;49.468;11.200;2022-07-10T06:41:35;4.25;;;1.55;;
50056;SDS011;36875;49.468;11.200;2022-07-10T06:44:01;6.65;;;1.40;;
50056;SDS011;36875;49.468;11.200;2022-07-10T06:46:28;3.38;;;1.50;;
50056;SDS011;36875;49.468;11.200;2022-07-10T06:48:54;3.30;;;1.50;;
50056;SDS011;36875;49.468;11.200;2022-07-10T06:51:20;2.83;;;1.25;;
50056;SDS011;36875;49.468;11.200;2022-07-10T06:53:46;3.08;;;1.40;;
50056;SDS011;36875;49.468;11.200;2022-07-10T06:56:12;2.67;;;1.40;;
50056;SDS011;36875;49.468;11.200;2022-07-10T06:58:40;4.10;;;1.50;;
50056;SDS011;36875;49.468;11.200;2022-07-10T07:01:05;5.53;;;1.50;;
50056;SDS011;36875;49.468;11.200;2022-07-10T07:03:32;4.13;;;1.70;;
50056;SDS011;36875;49.468;11.200;2022-07-10T07:05:58;3.28;;;1.35;;
50056;SDS011;36875;49.468;11.200;2022-07-10T07:08:24;6.45;;;1.67;;
50056;SDS011;36875;49.468;11.200;2022-07-10T07:10:49;4.53;;;1.38;;
50056;SDS011;36875;49.468;11.200;2022-07-10T07:13:15;7.57;;;1.60;;
50056;SDS011;36875;49.468;11.200;2022-07-10T07:15:41;3.70;;;1.45;;
50056;SDS011;36875;49.468;11.200;2022-07-10T07:18:14;6.40;;;1.45;;
50056;SDS011;36875;49.468;11.200;2022-07-10T07:20:42;7.70;;;1.42;;
50056;SDS011;36875;49.468;11.200;2022-07-10T07:23:27;8.20;;;2.05;;
50056;SDS011;36875;49.468;11.200;2022-07-10T07:25:52;3.80;;;1.48;;
50056;SDS011;36875;49.468;11.200;2022-07-10T07:28:18;4.53;;;1.50;;
50056;SDS011;36875;49.468;11.200;2022-07-10T07:30:45;5.53;;;1.75;;
50056;SDS011;36875;49.468;11.200;2022-07-10T07:33:11;8.13;;;1.88;;
50056;SDS011;36875;49.468;11.200;2022-07-10T07:35:37;6.03;;;1.30;;
50056;SDS011;36875;49.468;11.200;2022-07-10T07:38:04;4.25;;;1.38;;
50056;SDS011;36875;49.468;11.200;2022-07-10T07:40:30;6.13;;;1.50;;
50056;SDS011;36875;49.468;11.200;2022-07-10T07:42:57;5.03;;;1.42;;
50056;SDS011;36875;49.468;11.200;2022-07-10T07:45:23;4.72;;;1.17;;
50056;SDS011;36875;49.468;11.200;2022-07-10T07:47:50;5.85;;;1.35;;
50056;SDS011;36875;49.468;11.200;2022-07-10T07:50:16;5.78;;;1.40;;
50056;SDS011;36875;49.468;11.200;2022-07-10T07:52:43;9.52;;;1.77;;
50056;SDS011;36875;49.468;11.200;2022-07-10T07:55:11;4.03;;;1.40;;
50056;SDS011;36875;49.468;11.200;2022-07-10T07:57:37;9.07;;;1.80;;
50056;SDS011;36875;49.468;11.200;2022-07-10T08:00:04;6.00;;;1.65;;
50056;SDS011;36875;49.468;11.200;2022-07-10T08:02:32;8.27;;;2.08;;
50056;SDS011;36875;49.468;11.200;2022-07-10T08:04:57;6.00;;;1.63;;
50056;SDS011;36875;49.468;11.200;2022-07-10T08:07:23;6.90;;;1.60;;
50056;SDS011;36875;49.468;11.200;2022-07-10T08:09:58;6.45;;;2.10;;
50056;SDS011;36875;49.468;11.200;2022-07-10T08:12:25;15.57;;;2.15;;
50056;SDS011;36875;49.468;11.200;2022-07-10T08:14:50;8.40;;;1.70;;
50056;SDS011;36875;49.468;11.200;2022-07-10T08:17:16;9.25;;;1.88;;
50056;SDS011;36875;49.468;11.200;2022-07-10T08:19:42;6.57;;;1.77;;
50056;SDS011;36875;49.468;11.200;2022-07-10T08:22:07;5.00;;;1.65;;
50056;SDS011;36875;49.468;11.200;2022-07-10T08:24:33;8.98;;;2.13;;
50056;SDS011;36875;49.468;11.200;2022-07-10T08:26:58;5.32;;;1.55;;
50056;SDS011;36875;49.468;11.200;2022-07-10T08:29:25;6.90;;;1.63;;
50056;SDS011;36875;49.468;11.200;2022-07-10T08:31:51;8.43;;;1.80;;
50056;SDS011;36875;49.468;11.200;2022-07-10T08:34:17;6.00;;;1.58;;
50056;SDS011;36875;49.468;11.200;2022-07-10T08:36:42;6.97;;;2.60;;
50056;SDS011;36875;49.468;11.200;2022-07-10T08:39:08;7.28;;;1.63;;
50056;SDS011;36875;49.468;11.200;2022-07-10T08:41:33;4.00;;;1.40;;
50056;SDS011;36875;49.468;11.200;2022-07-10T08:44:01;9.35;;;1.23;;
50056;SDS011;36875;49.468;11.200;2022-07-10T08:46:28;5.60;;;1.30;;
50056;SDS011;36875;49.468;11.200;2022-07-10T08:48:56;5.68;;;1.15;;
50056;SDS011;36875;49.468;11.200;2022-07-10T08:51:30;5.63;;;1.17;;
50056;SDS011;36875;49.468;11.200;2022-07-10T08:54:00;2.95;;;0.88;;
50056;SDS011;36875;49.468;11.200;2022-07-10T08:56:26;2.45;;;0.70;;
50056;SDS011;36875;49.468;11.200;2022-07-10T08:58:52;3.45;;;0.80;;
50056;SDS011;36875;49.468;11.200;2022-07-10T09:01:19;2.33;;;0.77;;
50056;SDS011;36875;49.468;11.200;2022-07-10T09:03:49;6.35;;;1.20;;
50056;SDS011;36875;49.468;11.200;2022-07-10T09:06:18;3.92;;;0.98;;
50056;SDS011;36875;49.468;11.200;2022-07-10T09:08:57;10.23;;;1.45;;
50056;SDS011;36875;49.468;11.200;2022-07-10T09:11:23;7.10;;;1.27;;
50056;SDS011;36875;49.468;11.200;2022-07-10T09:13:52;3.42;;;1.00;;
50056;SDS011;36875;49.468;11.200;2022-07-10T09:16:20;4.18;;;1.25;;
50056;SDS011;36875;49.468;11.200;2022-07-10T09:18:48;3.08;;;0.80;;
50056;SDS011;36875;49.468;11.200;2022-07-10T09:21:15;5.47;;;1.10;;
50056;SDS011;36875;49.468;11.200;2022-07-10T09:23:41;3.42;;;0.95;;
50056;SDS011;36875;49.468;11.200;2022-07-10T09:26:07;2.08;;;0.88;;
50056;SDS011;36875;49.468;11.200;2022-07-10T09:28:32;3.13;;;0.88;;
50056;SDS011;36875;49.468;11.200;2022-07-10T09:30:58;6.90;;;1.15;;
50056;SDS011;36875;49.468;11.200;2022-07-10T09:33:24;3.03;;;0.93;;
50056;SDS011;36875;49.468;11.200;2022-07-10T09:38:49;3.85;;;1.20;;
50056;SDS011;36875;49.468;11.200;2022-07-10T09:41:17;5.90;;;1.60;;
50056;SDS011;36875;49.468;11.200;2022-07-10T09:43:44;4.13;;;0.68;;
50056;SDS011;36875;49.468;11.200;2022-07-10T09:46:12;3.63;;;1.17;;
50056;SDS011;36875;49.468;11.200;2022-07-10T09:48:46;4.10;;;0.80;;
50056;SDS011;36875;49.468;11.200;2022-07-10T09:51:14;3.78;;;0.90;;
50056;SDS011;36875;49.468;11.200;2022-07-10T09:53:40;4.93;;;1.23;;
50056;SDS011;36875;49.468;11.200;2022-07-10T09:56:07;3.33;;;0.80;;
50056;SDS011;36875;49.468;11.200;2022-07-10T09:58:34;4.80;;;0.95;;
50056;SDS011;36875;49.468;11.200;2022-07-10T10:01:01;4.32;;;0.43;;
50056;SDS011;36875;49.468;11.200;2022-07-10T10:03:28;6.13;;;0.90;;
50056;SDS011;36875;49.468;11.200;2022-07-10T10:05:58;2.38;;;0.70;;
50056;SDS011;36875;49.468;11.200;2022-07-10T10:08:30;5.60;;;1.00;;
50056;SDS011;36875;49.468;11.200;2022-07-10T10:10:57;2.53;;;0.73;;
50056;SDS011;36875;49.468;11.200;2022-07-10T10:13:24;2.97;;;1.00;;
50056;SDS011;36875;49.468;11.200;2022-07-10T10:18:21;5.85;;;1.40;;
50056;SDS011;36875;49.468;11.200;2022-07-10T10:20:48;2.08;;;0.60;;
50056;SDS011;36875;49.468;11.200;2022-07-10T10:23:15;4.82;;;0.90;;
50056;SDS011;36875;49.468;11.200;2022-07-10T10:25:50;4.65;;;0.80;;
50056;SDS011;36875;49.468;11.200;2022-07-10T10:28:19;3.85;;;0.73;;
50056;SDS011;36875;49.468;11.200;2022-07-10T10:30:48;4.80;;;0.90;;
50056;SDS011;36875;49.468;11.200;2022-07-10T10:39:16;3.03;;;0.60;;
50056;SDS011;36875;49.468;11.200;2022-07-10T10:41:48;1.40;;;0.60;;
50056;SDS011;36875;49.468;11.200;2022-07-10T10:44:19;3.67;;;0.70;;
50056;SDS011;36875;49.468;11.200;2022-07-10T10:46:54;4.25;;;0.90;;
50056;SDS011;36875;49.468;11.200;2022-07-10T10:49:47;2.15;;;0.88;;
50056;SDS011;36875;49.468;11.200;2022-07-10T10:52:23;1.60;;;0.52;;
50056;SDS011;36875;49.468;11.200;2022-07-10T10:55:03;2.30;;;0.73;;
50056;SDS011;36875;49.468;11.200;2022-07-10T10:57:42;2.35;;;0.80;;
50056;SDS011;36875;49.468;11.200;2022-07-10T11:00:13;2.78;;;0.80;;
50056;SDS011;36875;49.468;11.200;2022-07-10T11:02:56;1.48;;;0.60;;
50056;SDS011;36875;49.468;11.200;2022-07-10T11:05:44;2.33;;;0.70;;
50056;SDS011;36875;49.468;11.200;2022-07-10T11:08:11;2.38;;;0.73;;
50056;SDS011;36875;49.468;11.200;2022-07-10T11:10:39;2.40;;;0.65;;
50056;SDS011;36875;49.468;11.200;2022-07-10T11:13:08;1.80;;;0.47;;
50056;SDS011;36875;49.468;11.200;2022-07-10T11:15:35;3.83;;;0.80;;
50056;SDS011;36875;49.468;11.200;2022-07-10T11:18:03;2.83;;;0.60;;
50056;SDS011;36875;49.468;11.200;2022-07-10T11:20:33;2.67;;;0.70;;
50056;SDS011;36875;49.468;11.200;2022-07-10T11:23:03;2.72;;;0.90;;
50056;SDS011;36875;49.468;11.200;2022-07-10T11:25:48;2.22;;;0.47;;
50056;SDS011;36875;49.468;11.200;2022-07-10T11:28:28;1.77;;;0.60;;
50056;SDS011;36875;49.468;11.200;2022-07-10T11:31:01;2.28;;;0.80;;
50056;SDS011;36875;49.468;11.200;2022-07-10T11:33:26;2.00;;;0.60;;
50056;SDS011;36875;49.468;11.200;2022-07-10T11:35:53;2.45;;;0.68;;
50056;SDS011;36875;49.468;11.200;2022-07-10T11:38:19;1.80;;;0.70;;
50056;SDS011;36875;49.468;11.200;2022-07-10T11:40:45;1.13;;;0.52;;
50056;SDS011;36875;49.468;11.200;2022-07-10T11:43:11;1.08;;;0.52;;
50056;SDS011;36875;49.468;11.200;2022-07-10T11:45:43;2.13;;;0.60;;
50056;SDS011;36875;49.468;11.200;2022-07-10T11:48:15;2.20;;;0.45;;
50056;SDS011;36875;49.468;11.200;2022-07-10T11:50:42;1.00;;;0.40;;
50056;SDS011;36875;49.468;11.200;2022-07-10T11:53:09;0.95;;;0.52;;
50056;SDS011;36875;49.468;11.200;2022-07-10T11:55:35;3.78;;;0.90;;
50056;SDS011;36875;49.468;11.200;2022-07-10T11:58:12;2.97;;;0.97;;
50056;SDS011;36875;49.468;11.200;2022-07-10T12:00:42;2.63;;;0.88;;
50056;SDS011;36875;49.468;11.200;2022-07-10T12:03:16;1.23;;;0.50;;
50056;SDS011;36875;49.468;11.200;2022-07-10T12:05:44;1.77;;;0.50;;
50056;SDS011;36875;49.468;11.200;2022-07-10T12:08:10;0.75;;;0.45;;
50056;SDS011;36875;49.468;11.200;2022-07-10T12:10:36;3.15;;;0.50;;
50056;SDS011;36875;49.468;11.200;2022-07-10T12:13:05;1.05;;;0.55;;
50056;SDS011;36875;49.468;11.200;2022-07-10T12:15:32;1.58;;;0.40;;
50056;SDS011;36875;49.468;11.200;2022-07-10T12:18:04;1.55;;;0.40;;
50056;SDS011;36875;49.468;11.200;2022-07-10T12:20:30;1.55;;;0.47;;
50056;SDS011;36875;49.468;11.200;2022-07-10T12:22:57;3.00;;;0.50;;
50056;SDS011;36875;49.468;11.200;2022-07-10T12:25:23;2.05;;;0.60;;
50056;SDS011;36875;49.468;11.200;2022-07-10T12:27:54;1.45;;;0.60;;
50056;SDS011;36875;49.468;11.200;2022-07-10T12:32:46;2.17;;;0.40;;
50056;SDS011;36875;49.468;11.200;2022-07-10T12:35:13;1.23;;;0.60;;
50056;SDS011;36875;49.468;11.200;2022-07-10T12:37:46;1.27;;;0.43;;
50056;SDS011;36875;49.468;11.200;2022-07-10T12:40:13;0.55;;;0.32;;
50056;SDS011;36875;49.468;11.200;2022-07-10T12:43:00;1.98;;;0.50;;
50056;SDS011;36875;49.468;11.200;2022-07-10T12:45:26;0.73;;;0.35;;
50056;SDS011;36875;49.468;11.200;2022-07-10T12:47:52;1.55;;;0.45;;
50056;SDS011;36875;49.468;11.200;2022-07-10T12:50:19;1.35;;;0.45;;
50056;SDS011;36875;49.468;11.200;2022-07-10T12:52:48;0.88;;;0.40;;
50056;SDS011;36875;49.468;11.200;2022-07-10T12:55:14;1.08;;;0.40;;
50056;SDS011;36875;49.468;11.200;2022-07-10T12:57:45;0.50;;;0.38;;
50056;SDS011;36875;49.468;11.200;2022-07-10T13:00:12;0.83;;;0.43;;
50056;SDS011;36875;49.468;11.200;2022-07-10T13:02:39;0.60;;;0.30;;
50056;SDS011;36875;49.468;11.200;2022-07-10T13:05:05;0.30;;;0.30;;
50056;SDS011;36875;49.468;11.200;2022-07-10T13:07:32;1.30;;;0.30;;
50056;SDS011;36875;49.468;11.200;2022-07-10T13:09:59;1.80;;;0.43;;
50056;SDS011;36875;49.468;11.200;2022-07-10T13:12:25;1.30;;;0.30;;
50056;SDS011;36875;49.468;11.200;2022-07-10T13:14:51;2.17;;;0.52;;
50056;SDS011;36875;49.468;11.200;2022-07-10T13:17:17;1.77;;;0.77;;
50056;SDS011;36875;49.468;11.200;2022-07-10T13:19:43;1.10;;;0.57;;
50056;SDS011;36875;49.468;11.200;2022-07-10T13:22:08;0.88;;;0.45;;
50056;SDS011;36875;49.468;11.200;2022-07-10T13:24:35;1.40;;;0.47;;
50056;SDS011;36875;49.468;11.200;2022-07-10T13:27:01;0.40;;;0.38;;
50056;SDS011;36875;49.468;11.200;2022-07-10T13:29:27;1.10;;;0.38;;
50056;SDS011;36875;49.468;11.200;2022-07-10T13:31:52;0.60;;;0.30;;
50056;SDS011;36875;49.468;11.200;2022-07-10T13:34:18;0.47;;;0.30;;
50056;SDS011;36875;49.468;11.200;2022-07-10T13:36:44;0.90;;;0.40;;
50056;SDS011;36875;49.468;11.200;2022-07-10T13:39:10;0.60;;;0.32;;
50056;SDS011;36875;49.468;11.200;2022-07-10T13:41:37;3.15;;;0.60;;
50056;SDS011;36875;49.468;11.200;2022-07-10T13:44:03;4.47;;;0.60;;
50056;SDS011;36875;49.468;11.200;2022-07-10T13:46:29;1.15;;;0.50;;
50056;SDS011;36875;49.468;11.200;2022-07-10T13:48:54;1.30;;;0.38;;
50056;SDS011;36875;49.468;11.200;2022-07-10T13:51:21;2.30;;;0.50;;
50056;SDS011;36875;49.468;11.200;2022-07-10T13:53:47;2.97;;;0.75;;
50056;SDS011;36875;49.468;11.200;2022-07-10T13:56:13;1.05;;;0.35;;
50056;SDS011;36875;49.468;11.200;2022-07-10T13:58:40;3.72;;;1.42;;
50056;SDS011;36875;49.468;11.200;2022-07-10T14:01:05;3.05;;;0.70;;
50056;SDS011;36875;49.468;11.200;2022-07-10T14:03:31;4.35;;;0.70;;
50056;SDS011;36875;49.468;11.200;2022-07-10T14:05:57;1.80;;;0.60;;
50056;SDS011;36875;49.468;11.200;2022-07-10T14:08:22;3.50;;;0.70;;
50056;SDS011;36875;49.468;11.200;2022-07-10T14:10:48;1.88;;;0.55;;
50056;SDS011;36875;49.468;11.200;2022-07-10T14:13:14;5.00;;;0.75;;
50056;SDS011;36875;49.468;11.200;2022-07-10T14:15:42;3.17;;;0.70;;
50056;SDS011;36875;49.468;11.200;2022-07-10T14:18:10;4.63;;;0.90;;
50056;SDS011;36875;49.468;11.200;2022-07-10T14:20:36;2.78;;;0.80;;
50056;SDS011;36875;49.468;11.200;2022-07-10T14:23:21;3.20;;;0.73;;
50056;SDS011;36875;49.468;11.200;2022-07-10T14:25:46;6.03;;;1.00;;
50056;SDS011;36875;49.468;11.200;2022-07-10T14:28:12;3.15;;;0.73;;
50056;SDS011;36875;49.468;11.200;2022-07-10T14:30:38;3.13;;;1.00;;
50056;SDS011;36875;49.468;11.200;2022-07-10T14:33:05;1.67;;;0.68;;
50056;SDS011;36875;49.468;11.200;2022-07-10T14:35:31;2.30;;;0.60;;
50056;SDS011;36875;49.468;11.200;2022-07-10T14:37:57;1.98;;;0.70;;
50056;SDS011;36875;49.468;11.200;2022-07-10T14:40:22;2.92;;;0.55;;
50056;SDS011;36875;49.468;11.200;2022-07-10T14:42:48;0.98;;;0.75;;
50056;SDS011;36875;49.468;11.200;2022-07-10T14:45:13;0.75;;;0.45;;
50056;SDS011;36875;49.468;11.200;2022-07-10T14:47:39;2.03;;;0.55;;